createdAt,value
2023-01-29T00:00:22.595Z,43.97
2023-01-29T00:05:28.453Z,44.27
2023-01-29T00:10:30.181Z,42.27
2023-01-29T00:15:31.609Z,41.87
2023-01-29T00:20:33.800Z,34.37
2023-01-29T00:25:35.309Z,31.67
2023-01-29T00:30:37.429Z,29.00
2023-01-29T00:35:40.946Z,22.73
2023-01-29T00:41:01.257Z,21.53
2023-01-29T00:46:02.854Z,21.17
2023-01-29T00:51:04.693Z,17.50
2023-01-29T00:56:06.607Z,17.43
2023-01-29T01:01:08.044Z,16.40
2023-01-29T01:06:10.986Z,14.50
2023-01-29T01:11:13.429Z,18.77
2023-01-29T01:16:18.620Z,16.43
2023-01-29T01:21:20.113Z,14.10
2023-01-29T01:26:21.696Z,16.50
2023-01-29T01:31:23.271Z,19.17
2023-01-29T01:36:24.717Z,17.50
2023-01-29T01:41:26.689Z,10.53
2023-01-29T01:46:34.840Z,15.80
2023-01-29T01:51:42.584Z,13.50
2023-01-29T01:56:48.601Z,16.67
2023-01-29T02:01:53.984Z,10.37
2023-01-29T02:07:16.134Z,9.87
2023-01-29T02:12:18.561Z,5.57
2023-01-29T02:17:20.554Z,10.50
2023-01-29T02:22:41.873Z,7.80
2023-01-29T02:27:59.368Z,8.20
2023-01-29T02:33:09.325Z,9.37
2023-01-29T02:38:25.067Z,16.20
2023-01-29T02:43:44.961Z,13.77
2023-01-29T02:48:57.744Z,14.40
2023-01-29T02:54:13.535Z,17.13
2023-01-29T02:59:23.356Z,6.40
2023-01-29T03:04:38.595Z,8.13
2023-01-29T03:09:46.453Z,12.48
2023-01-29T03:15:09.830Z,12.60
2023-01-29T03:20:18.192Z,15.07
2023-01-29T03:25:41.532Z,9.97
2023-01-29T03:31:10.348Z,12.23
2023-01-29T03:36:21.134Z,15.40
2023-01-29T03:41:29.424Z,14.37
2023-01-29T03:46:41.806Z,11.73
2023-01-29T03:51:43.166Z,17.63
2023-01-29T03:57:06.145Z,9.10
2023-01-29T04:02:13.847Z,13.37
2023-01-29T04:07:19.052Z,13.27
2023-01-29T04:12:28.860Z,19.13
2023-01-29T04:17:39.676Z,22.97
2023-01-29T04:22:46.142Z,24.70
2023-01-29T04:28:21.961Z,30.43
2023-01-29T04:33:44.771Z,27.33
2023-01-29T04:38:58.382Z,25.70
2023-01-29T04:44:16.599Z,21.33
2023-01-29T04:49:27.220Z,23.17
2023-01-29T04:54:35.431Z,17.67
2023-01-29T04:59:43.362Z,18.73
2023-01-29T05:04:47.492Z,19.87
2023-01-29T05:09:50.753Z,17.60
2023-01-29T05:14:53.421Z,15.07
2023-01-29T05:19:56.606Z,5.07
2023-01-29T05:24:58.080Z,7.60
2023-01-29T05:29:59.521Z,4.67
2023-01-29T05:35:01.115Z,6.53
2023-01-29T05:40:02.539Z,6.63
2023-01-29T05:45:04.937Z,7.20
2023-01-29T05:50:07.174Z,7.33
2023-01-29T05:55:09.705Z,5.17
2023-01-29T06:00:12.997Z,4.57
2023-01-29T06:05:14.465Z,4.77
2023-01-29T06:10:18.069Z,8.00
2023-01-29T06:15:22.218Z,8.30
2023-01-29T06:20:24.899Z,11.10
2023-01-29T06:25:26.346Z,10.97
2023-01-29T06:30:28.438Z,7.70
2023-01-29T06:35:30.133Z,5.40
2023-01-29T06:40:31.725Z,8.83
2023-01-29T06:45:33.237Z,9.00
2023-01-29T06:50:34.746Z,9.53
2023-01-29T06:55:36.254Z,8.07
2023-01-29T07:00:38.472Z,7.77
2023-01-29T07:05:39.945Z,11.30
2023-01-29T07:10:41.369Z,6.70
2023-01-29T07:15:44.377Z,7.33
2023-01-29T07:20:45.805Z,12.13
2023-01-29T07:25:49.739Z,11.07
2023-01-29T07:30:56.197Z,8.07
2023-01-29T07:35:57.659Z,7.53
2023-01-29T07:40:59.064Z,9.07
2023-01-29T07:46:04.449Z,12.60
2023-01-29T07:51:06.457Z,12.20
2023-01-29T07:56:08.084Z,17.30
2023-01-29T08:01:09.699Z,15.70
2023-01-29T08:06:11.193Z,11.73
2023-01-29T08:11:12.674Z,15.60
2023-01-29T08:16:14.417Z,18.27
2023-01-29T08:21:17.046Z,20.63
2023-01-29T08:26:19.060Z,15.97
2023-01-29T08:31:20.810Z,20.63
2023-01-29T08:36:22.418Z,22.70
2023-01-29T08:41:23.919Z,20.20
2023-01-29T08:46:25.464Z,20.97
2023-01-29T08:51:27.205Z,21.50
2023-01-29T08:56:28.651Z,22.97
2023-01-29T09:01:30.183Z,19.97
2023-01-29T09:06:31.704Z,22.87
2023-01-29T09:11:33.110Z,21.30
2023-01-29T09:16:34.674Z,19.23
2023-01-29T09:21:36.113Z,17.57
2023-01-29T09:26:39.686Z,17.63
2023-01-29T09:31:41.312Z,20.10
2023-01-29T09:36:42.882Z,14.87
2023-01-29T09:42:08.186Z,15.67
2023-01-29T09:47:15.425Z,16.73
2023-01-29T09:52:30.358Z,18.20
2023-01-29T09:57:41.565Z,20.53
2023-01-29T10:03:15.541Z,16.70
2023-01-29T10:08:44.923Z,23.17
2023-01-29T10:14:08.755Z,20.03
2023-01-29T10:19:38.984Z,23.00
2023-01-29T10:25:02.256Z,25.97
2023-01-29T10:30:09.662Z,30.70
2023-01-29T10:35:21.605Z,25.10
2023-01-29T10:40:39.606Z,27.80
2023-01-29T10:46:22.743Z,26.80
2023-01-29T10:51:58.458Z,27.60
2023-01-29T10:57:38.436Z,29.83
2023-01-29T11:02:48.445Z,26.13
2023-01-29T11:08:01.740Z,25.00
2023-01-29T11:13:05.309Z,24.50
2023-01-29T11:18:15.809Z,20.87
2023-01-29T11:23:28.375Z,18.13
2023-01-29T11:28:42.130Z,19.27
2023-01-29T11:33:44.678Z,19.65
2023-01-29T11:38:46.256Z,23.90
2023-01-29T11:43:47.820Z,21.50
2023-01-29T11:48:58.983Z,22.83
2023-01-29T11:54:17.134Z,21.03
2023-01-29T11:59:44.269Z,29.57
2023-01-29T12:04:46.779Z,21.00
2023-01-29T12:09:51.984Z,23.17
2023-01-29T12:15:16.406Z,23.40
2023-01-29T12:20:28.097Z,30.47
2023-01-29T12:25:44.862Z,41.70
2023-01-29T12:31:01.443Z,35.83
2023-01-29T12:36:11.690Z,35.53
2023-01-29T12:41:24.981Z,38.60
2023-01-29T12:46:29.534Z,31.57
2023-01-29T12:56:51.573Z,30.53
2023-01-29T13:01:58.893Z,28.43
2023-01-29T13:07:13.477Z,28.13
2023-01-29T13:17:23.356Z,29.33
2023-01-29T13:22:28.591Z,29.43
2023-01-29T13:27:33.089Z,31.33
2023-01-29T13:32:36.097Z,28.30
2023-01-29T13:37:46.843Z,29.80
2023-01-29T13:42:50.412Z,32.47
2023-01-29T13:47:53.138Z,25.05
2023-01-29T13:52:58.051Z,25.87
2023-01-29T13:58:00.957Z,25.50
2023-01-29T14:03:04.574Z,24.50
2023-01-29T14:08:08.700Z,27.03
2023-01-29T14:13:19.193Z,27.17
2023-01-29T14:18:23.840Z,26.83
2023-01-29T14:28:57.945Z,33.10
2023-01-29T14:34:02.270Z,29.42
2023-01-29T14:39:04.317Z,28.58
2023-01-29T14:44:42.849Z,30.13
2023-01-29T14:50:28.720Z,26.03
2023-01-29T14:55:37.810Z,27.87
2023-01-29T15:00:43.545Z,28.03
2023-01-29T15:05:46.538Z,28.90
2023-01-29T15:11:21.065Z,33.30
2023-01-29T15:16:32.182Z,30.53
2023-01-29T15:21:34.626Z,37.20
2023-01-29T15:26:36.597Z,38.53
2023-01-29T15:31:41.871Z,36.33
2023-01-29T15:36:43.559Z,28.07
2023-01-29T15:41:46.021Z,37.97
2023-01-29T15:46:57.902Z,29.00
2023-01-29T15:52:05.659Z,33.60
2023-01-29T15:57:18.589Z,27.60
2023-01-29T16:02:40.939Z,27.93
2023-01-29T16:07:43.429Z,24.97
2023-01-29T16:12:47.404Z,30.93
2023-01-29T16:17:50.362Z,28.55
2023-01-29T16:22:53.369Z,30.00
2023-01-29T16:27:54.882Z,29.30
2023-01-29T16:33:04.822Z,26.20
2023-01-29T16:38:24.121Z,23.23
2023-01-29T16:43:28.471Z,24.80
2023-01-29T16:48:35.164Z,23.97
2023-01-29T16:53:37.453Z,26.38
2023-01-29T16:58:38.923Z,22.57
2023-01-29T17:03:41.917Z,25.70
2023-01-29T17:08:43.860Z,30.50
2023-01-29T17:13:46.152Z,21.00
2023-01-29T17:18:47.695Z,25.30
2023-01-29T17:23:49.280Z,24.67
2023-01-29T17:28:51.612Z,18.30
2023-01-29T17:33:53.082Z,16.90
2023-01-29T17:38:54.519Z,20.33
2023-01-29T17:43:56.030Z,19.53
2023-01-29T17:48:57.626Z,19.40
2023-01-29T17:53:59.105Z,20.97
2023-01-29T17:59:00.875Z,20.13
2023-01-29T18:04:02.338Z,23.73
2023-01-29T18:09:04.321Z,24.23
2023-01-29T18:14:13.686Z,23.97
2023-01-29T18:19:23.109Z,25.70
2023-01-29T18:24:26.415Z,32.33
2023-01-29T18:29:30.101Z,26.90
2023-01-29T18:34:31.612Z,22.73
2023-01-29T18:39:33.110Z,24.63
2023-01-29T18:44:34.640Z,24.63
2023-01-29T18:49:39.050Z,25.80
2023-01-29T18:54:40.576Z,27.10
2023-01-29T18:59:42.035Z,27.67
2023-01-29T19:04:46.146Z,27.97
2023-01-29T19:09:48.365Z,29.03
2023-01-29T19:14:49.862Z,27.83
2023-01-29T19:19:51.320Z,34.83
2023-01-29T19:24:52.733Z,26.93
2023-01-29T19:29:55.898Z,27.30
2023-01-29T19:34:58.417Z,24.30
2023-01-29T19:39:59.934Z,26.63
2023-01-29T19:45:01.448Z,35.93
2023-01-29T19:50:02.935Z,26.57
2023-01-29T19:55:07.240Z,33.10
2023-01-29T20:00:12.094Z,33.50
2023-01-29T20:05:17.172Z,36.07
2023-01-29T20:10:19.474Z,34.83
2023-01-29T20:15:22.389Z,34.60
2023-01-29T20:20:23.975Z,37.37
2023-01-29T20:25:30.509Z,38.87
2023-01-29T20:30:35.924Z,45.87
2023-01-29T20:35:38.647Z,46.53
2023-01-29T20:40:40.134Z,45.33
2023-01-29T20:45:42.211Z,50.57
2023-01-29T20:50:43.802Z,55.30
2023-01-29T20:55:45.746Z,57.13
2023-01-29T21:00:47.652Z,62.40
2023-01-29T21:05:50.211Z,64.93
2023-01-29T21:10:54.637Z,50.70
2023-01-29T21:15:56.205Z,61.08
2023-01-29T21:20:57.658Z,47.40
2023-01-29T21:26:04.314Z,50.50
2023-01-29T21:31:11.196Z,45.23
2023-01-29T21:36:12.730Z,46.60
2023-01-29T21:41:14.160Z,48.07
2023-01-29T21:46:16.752Z,39.27
2023-01-29T21:51:18.947Z,45.27
2023-01-29T21:56:20.501Z,43.57
2023-01-29T22:01:37.696Z,37.97
2023-01-29T22:06:39.980Z,39.27
2023-01-29T22:11:41.664Z,32.30
2023-01-29T22:16:43.107Z,37.73
2023-01-29T22:21:44.879Z,33.73
2023-01-29T22:26:48.428Z,46.17
2023-01-29T22:31:50.082Z,34.77
2023-01-29T22:36:51.546Z,33.40
2023-01-29T22:41:53.037Z,31.27
2023-01-29T22:46:54.556Z,28.97
2023-01-29T22:52:11.424Z,29.07
2023-01-29T22:57:14.692Z,31.00
2023-01-29T23:02:16.187Z,30.87
2023-01-29T23:07:17.681Z,32.67
2023-01-29T23:12:19.139Z,34.03
2023-01-29T23:17:20.694Z,29.53
2023-01-29T23:22:22.119Z,36.70
2023-01-29T23:27:23.602Z,33.33
2023-01-29T23:32:25.184Z,38.93
2023-01-29T23:37:26.770Z,38.97
2023-01-29T23:42:28.194Z,33.80
2023-01-29T23:47:29.650Z,38.23
2023-01-29T23:52:31.160Z,30.33
2023-01-29T23:57:32.576Z,31.07
